| time (UTC) | temp C | wind direction | speed KPH | gust KPH | rain 1hr cm | rain 24hr cm | rain mn cm | humidity % | barometer mb |
| 20260502130704 | 13 | 351 | 9.7 | 19.3 | 0.00 | 2.44 | 0.00 | 86 | 1016.8 |
| 20260502130204 | 13 | 0 | 8.0 | 19.3 | 0.00 | 2.44 | 0.00 | 86 | 1016.7 |
| 20260502123705 | 13 | 356 | 8.0 | 20.9 | 0.00 | 2.44 | 0.00 | 88 | 1016.4 |
| 20260502123205 | 13 | 355 | 9.7 | 20.9 | 0.00 | 2.44 | 0.00 | 88 | 1016.4 |
| 20260502122704 | 13 | 326 | 8.0 | 16.1 | 0.00 | 2.44 | 0.00 | 88 | 1016.2 |
| 20260502122204 | 13 | 343 | 8.0 | 16.1 | 0.00 | 2.44 | 0.00 | 89 | 1016.1 |
| 20260502121704 | 13 | 330 | 8.0 | 16.1 | 0.00 | 2.44 | 0.00 | 89 | 1016.1 |
| 20260502121204 | 13 | 322 | 8.0 | 14.5 | 0.00 | 2.44 | 0.00 | 89 | 1016.1 |
| 20260502120704 | 13 | 313 | 4.8 | 12.9 | 0.00 | 2.44 | 0.00 | 89 | 1016.0 |
| 20260502115204 | 13 | 331 | 4.8 | 14.5 | 0.00 | 2.44 | 0.00 | 89 | 1015.7 |
| 20260502114704 | 13 | 325 | 4.8 | 14.5 | 0.00 | 2.44 | 0.00 | 90 | 1015.8 |
| 20260502114204 | 13 | 353 | 4.8 | 14.5 | 0.00 | 2.44 | 0.00 | 90 | 1015.7 |
| 20260502113704 | 13 | 311 | 4.8 | 14.5 | 0.00 | 2.44 | 0.00 | 89 | 1015.7 |
| 20260502112704 | 13 | 302 | 3.2 | 12.9 | 0.00 | 2.44 | 0.00 | 89 | 1015.5 |
| 20260502111704 | 13 | 322 | 3.2 | 16.1 | 0.00 | 2.44 | 0.00 | 90 | 1015.2 |
| 20260502111205 | 13 | 344 | 3.2 | 16.1 | 0.00 | 2.44 | 0.00 | 89 | 1015.2 |
| 20260502110704 | 13 | 342 | 6.4 | 16.1 | 0.00 | 2.44 | 0.00 | 90 | 1015.1 |
| 20260502110204 | 13 | 297 | 4.8 | 12.9 | 0.00 | 2.44 | 0.00 | 90 | 1015.1 |
| 20260502105204 | 13 | 328 | 4.8 | 14.5 | 0.00 | 2.44 | 0.00 | 90 | 1015.0 |
| 20260502104704 | 13 | 331 | 6.4 | 12.9 | 0.00 | 2.44 | 0.00 | 90 | 1014.8 |
| 20260502104204 | 13 | 343 | 8.0 | 12.9 | 0.00 | 2.44 | 0.00 | 91 | 1014.7 |
| 20260502103704 | 13 | 345 | 3.2 | 11.3 | 0.00 | 2.44 | 0.00 | 90 | 1014.7 |
| 20260502103204 | 13 | 341 | 4.8 | 11.3 | 0.00 | 2.44 | 0.00 | 90 | 1014.7 |
| 20260502102704 | 13 | 344 | 6.4 | 11.3 | 0.00 | 2.44 | 0.00 | 91 | 1014.4 |
| 20260502102204 | 13 | 315 | 4.8 | 9.7 | 0.00 | 2.44 | 0.00 | 91 | 1014.5 |
| 20260502101704 | 13 | 278 | 3.2 | 9.7 | 0.00 | 2.44 | 0.00 | 91 | 1014.4 |
| 20260502101204 | 13 | 329 | 3.2 | 9.7 | 0.00 | 2.44 | 0.00 | 91 | 1014.2 |
| 20260502100704 | 13 | 346 | 3.2 | 9.7 | 0.00 | 2.44 | 0.00 | 91 | 1014.2 |
| 20260502100204 | 13 | 346 | 4.8 | 11.3 | 0.00 | 2.44 | 0.00 | 91 | 1014.1 |
| 20260502091204 | 13 | 334 | 8.0 | 20.9 | 0.00 | 2.44 | 0.00 | 91 | 1013.9 |
| 20260502090704 | 13 | 320 | 8.0 | 20.9 | 0.00 | 2.44 | 0.00 | 91 | 1013.8 |
| 20260502071204 | 13 | 348 | 8.0 | 25.7 | 0.00 | 2.44 | 0.00 | 90 | 1013.1 |
| 20260502070704 | 13 | 23 | 8.0 | 25.7 | 0.00 | 2.44 | 0.00 | 91 | 1013.1 |
| 20260502065704 | 13 | 337 | 9.7 | 19.3 | 0.00 | 2.44 | 0.00 | 91 | 1013.2 |
| 20260502065204 | 13 | 356 | 6.4 | 19.3 | 0.00 | 2.44 | 0.00 | 90 | 1013.0 |
| 20260502064704 | 13 | 334 | 8.0 | 20.9 | 0.00 | 2.44 | 0.00 | 90 | 1013.0 |
| 20260502063203 | 13 | 333 | 11.3 | 24.1 | 0.00 | 2.44 | 0.00 | 90 | 1013.2 |
| 20260502062203 | 13 | 317 | 8.0 | 25.7 | 0.00 | 2.44 | 0.00 | 90 | 1013.3 |
| 20260502061703 | 14 | 345 | 16.1 | 25.7 | 0.00 | 2.44 | 0.00 | 89 | 1013.3 |
| 20260502060704 | 14 | 329 | 9.7 | 20.9 | 0.00 | 2.44 | 0.00 | 90 | 1013.3 |
| 20260502060203 | 14 | 333 | 8.0 | 22.5 | 0.00 | 2.44 | 0.00 | 90 | 1013.2 |
| 20260502054703 | 14 | 334 | 11.3 | 29.0 | 0.00 | 2.44 | 0.00 | 89 | 1013.0 |
| 20260502054204 | 14 | 338 | 11.3 | 27.4 | 0.00 | 2.44 | 0.00 | 90 | 1012.9 |
| 20260502053703 | 14 | 333 | 12.9 | 27.4 | 0.00 | 2.44 | 0.00 | 90 | 1012.9 |
| 20260502053204 | 15 | 338 | 11.3 | 22.5 | 0.00 | 2.44 | 0.00 | 90 | 1013.1 |
| 20260502052203 | 15 | 340 | 12.9 | 25.7 | 0.00 | 2.44 | 0.00 | 89 | 1012.7 |
| 20260502051703 | 15 | 334 | 11.3 | 25.7 | 0.00 | 2.44 | 0.00 | 90 | 1012.7 |
| 20260502051204 | 15 | 329 | 12.9 | 25.7 | 0.00 | 2.44 | 0.00 | 89 | 1012.6 |
| 20260502050704 | 15 | 346 | 11.3 | 20.9 | 0.00 | 2.44 | 0.00 | 90 | 1012.8 |
| 20260502050204 | 15 | 341 | 8.0 | 16.1 | 0.00 | 2.44 | 0.00 | 90 | 1012.6 |
| 20260502044703 | 15 | 341 | 8.0 | 16.1 | 0.00 | 2.44 | 2.44 | 91 | 1012.3 |
| 20260502044204 | 15 | 4 | 11.3 | 25.7 | 0.00 | 2.44 | 2.44 | 91 | 1012.2 |
| 20260502043704 | 15 | 7 | 9.7 | 25.7 | 0.00 | 2.44 | 2.44 | 90 | 1012.2 |
| 20260502043204 | 15 | 341 | 9.7 | 25.7 | 0.00 | 2.44 | 2.44 | 90 | 1012.0 |
| 20260502042703 | 15 | 334 | 12.9 | 25.7 | 0.00 | 2.44 | 2.44 | 90 | 1012.3 |
| 20260502042203 | 15 | 337 | 12.9 | 24.1 | 0.00 | 2.44 | 2.44 | 90 | 1012.1 |
| 20260502041703 | 15 | 357 | 16.1 | 24.1 | 0.00 | 2.44 | 2.44 | 90 | 1011.9 |
| 20260502041203 | 15 | 350 | 11.3 | 24.1 | 0.00 | 2.44 | 2.44 | 90 | 1011.9 |
| 20260502040703 | 15 | 353 | 14.5 | 24.1 | 0.00 | 2.44 | 2.44 | 90 | 1011.7 |
| 20260502040204 | 15 | 350 | 11.3 | 24.1 | 0.00 | 2.44 | 2.44 | 90 | 1012.0 |
| 20260502035704 | 15 | 348 | 11.3 | 24.1 | 0.00 | 2.44 | 2.44 | 89 | 1011.8 |
| 20260502034204 | 15 | 334 | 17.7 | 37.0 | 0.00 | 2.44 | 2.44 | 88 | 1011.8 |
| 20260502033204 | 15 | 351 | 14.5 | 27.4 | 0.00 | 2.44 | 2.44 | 90 | 1011.7 |
| 20260502032704 | 15 | 342 | 14.5 | 25.7 | 0.00 | 2.44 | 2.44 | 90 | 1011.7 |
| 20260502032204 | 15 | 324 | 11.3 | 24.1 | 0.00 | 2.44 | 2.44 | 91 | 1011.5 |
| 20260502031703 | 16 | 355 | 9.7 | 22.5 | 0.03 | 2.44 | 2.44 | 91 | 1011.3 |
| 20260502031203 | 16 | 335 | 11.3 | 22.5 | 0.03 | 2.44 | 2.44 | 91 | 1011.5 |
| 20260502030704 | 16 | 358 | 9.7 | 25.7 | 0.03 | 2.44 | 2.44 | 91 | 1011.4 |
| 20260502030204 | 16 | 326 | 11.3 | 29.0 | 0.03 | 2.44 | 2.44 | 91 | 1011.2 |
| 20260502025703 | 16 | 334 | 11.3 | 29.0 | 0.03 | 2.44 | 2.44 | 90 | 1011.2 |
| 20260502025203 | 16 | 346 | 11.3 | 24.1 | 0.05 | 2.44 | 2.44 | 92 | 1011.2 |
| 20260502024704 | 16 | 331 | 9.7 | 24.1 | 0.05 | 2.44 | 2.44 | 92 | 1011.0 |
| 20260502024204 | 16 | 342 | 11.3 | 20.9 | 0.05 | 2.44 | 2.44 | 92 | 1010.8 |
| 20260502023703 | 16 | 344 | 11.3 | 20.9 | 0.05 | 2.44 | 2.44 | 92 | 1010.7 |
| 20260502023204 | 16 | 331 | 8.0 | 19.3 | 0.05 | 2.44 | 2.44 | 93 | 1010.6 |
| 20260502021703 | 16 | 340 | 9.7 | 20.9 | 0.03 | 2.44 | 2.44 | 93 | 1010.2 |
| 20260502021204 | 16 | 343 | 9.7 | 20.9 | 0.03 | 2.41 | 2.41 | 93 | 1010.1 |
| 20260502020703 | 16 | 328 | 9.7 | 22.5 | 0.03 | 2.41 | 2.41 | 93 | 1009.8 |
| 20260502020204 | 16 | 324 | 9.7 | 22.5 | 0.03 | 2.41 | 2.41 | 93 | 1009.9 |
| 20260502015704 | 16 | 338 | 6.4 | 19.3 | 0.03 | 2.41 | 2.41 | 93 | 1009.8 |
| 20260502015203 | 16 | 347 | 11.3 | 22.5 | 0.00 | 2.41 | 2.41 | 93 | 1009.7 |
| 20260502014703 | 16 | 347 | 12.9 | 22.5 | 0.03 | 2.41 | 2.41 | 93 | 1009.5 |
| 20260502014203 | 16 | 345 | 8.0 | 22.5 | 0.03 | 2.39 | 2.39 | 93 | 1009.4 |
| 20260502013703 | 16 | 354 | 11.3 | 22.5 | 0.03 | 2.39 | 2.39 | 93 | 1009.4 |
| 20260502013204 | 16 | 335 | 9.7 | 27.4 | 0.03 | 2.39 | 2.39 | 93 | 1009.4 |
| 20260502012704 | 16 | 340 | 9.7 | 27.4 | 0.03 | 2.39 | 2.39 | 93 | 1009.4 |
| 20260502012203 | 16 | 339 | 11.3 | 27.4 | 0.05 | 2.39 | 2.39 | 93 | 1009.2 |
| 20260502011703 | 16 | 333 | 8.0 | 24.1 | 0.05 | 2.39 | 2.39 | 93 | 1009.1 |
| 20260502010704 | 16 | 337 | 14.5 | 24.1 | 0.05 | 2.39 | 2.39 | 93 | 1008.8 |
| 20260502010205 | 16 | 331 | 12.9 | 24.1 | 0.05 | 2.39 | 2.39 | 93 | 1008.8 |
| 20260502005204 | 16 | 348 | 12.9 | 24.1 | 0.05 | 2.39 | 2.39 | 93 | 1008.5 |
| 20260502004704 | 16 | 334 | 8.0 | 24.1 | 0.05 | 2.39 | 2.39 | 93 | 1008.4 |
| 20260502004205 | 16 | 334 | 9.7 | 24.1 | 0.05 | 2.39 | 2.39 | 93 | 1008.5 |
| 20260502003704 | 16 | 334 | 11.3 | 29.0 | 0.05 | 2.39 | 2.39 | 93 | 1008.3 |
| 20260502003204 | 16 | 344 | 11.3 | 29.0 | 0.05 | 2.36 | 2.36 | 93 | 1008.2 |
| 20260502002704 | 16 | 335 | 9.7 | 25.7 | 0.05 | 2.36 | 2.36 | 94 | 1008.6 |
| 20260502002204 | 16 | 345 | 12.9 | 25.7 | 0.03 | 2.36 | 2.36 | 94 | 1008.4 |
| 20260502001704 | 16 | 344 | 11.3 | 33.8 | 0.03 | 2.36 | 2.36 | 94 | 1008.4 |
| 20260502001204 | 16 | 337 | 14.5 | 33.8 | 0.03 | 2.36 | 2.36 | 94 | 1008.1 |
| 20260502000204 | 16 | 310 | 8.0 | 29.0 | 0.05 | 2.36 | 2.36 | 94 | 1009.0 |
| 20260501235704 | 16 | 323 | 11.3 | 29.0 | 0.08 | 2.36 | 2.36 | 95 | 1008.6 |
| 20260501235204 | 16 | 304 | 9.7 | 22.5 | 0.08 | 2.34 | 2.34 | 95 | 1009.1 |
| 20260501234704 | 16 | 322 | 9.7 | 32.2 | 0.10 | 2.34 | 2.34 | 95 | 1008.9 |
| 20260501234204 | 16 | 327 | 11.3 | 32.2 | 0.15 | 2.34 | 2.34 | 95 | 1008.4 |
| 20260501233704 | 16 | 336 | 14.5 | 27.4 | 0.20 | 2.34 | 2.34 | 95 | 1008.2 |
| 20260501233204 | 16 | 331 | 11.3 | 24.1 | 0.28 | 2.34 | 2.34 | 95 | 1007.7 |
| 20260501232704 | 17 | 336 | 12.9 | 24.1 | 0.38 | 2.34 | 2.34 | 95 | 1007.9 |
| 20260501232204 | 17 | 319 | 9.7 | 25.7 | 0.38 | 2.34 | 2.34 | 95 | 1007.9 |
| 20260501231704 | 17 | 319 | 11.3 | 25.7 | 0.38 | 2.34 | 2.34 | 95 | 1007.7 |
| 20260501231204 | 17 | 324 | 8.0 | 25.7 | 0.38 | 2.34 | 2.34 | 96 | 1007.3 |
| 20260501230704 | 17 | 320 | 14.5 | 25.7 | 0.38 | 2.31 | 2.31 | 96 | 1007.2 |
| 20260501230204 | 17 | 330 | 11.3 | 25.7 | 0.36 | 2.29 | 2.29 | 96 | 1007.1 |
| 20260501225703 | 17 | 323 | 11.3 | 29.0 | 0.33 | 2.26 | 2.26 | 96 | 1007.4 |
| 20260501225203 | 17 | 328 | 12.9 | 29.0 | 0.33 | 2.26 | 2.26 | 96 | 1007.1 |
| 20260501224204 | 17 | 327 | 8.0 | 27.4 | 0.28 | 2.21 | 2.21 | 95 | 1007.2 |
| 20260501223704 | 17 | 269 | 4.8 | 29.0 | 0.23 | 2.13 | 2.13 | 95 | 1007.8 |
| 20260501223204 | 17 | 336 | 16.1 | 29.0 | 0.15 | 2.06 | 2.06 | 94 | 1006.6 |
| 20260501222703 | 18 | 300 | 8.0 | 20.9 | 0.05 | 1.96 | 1.96 | 94 | 1007.2 |
| 20260501222204 | 18 | 279 | 3.2 | 20.9 | 0.05 | 1.96 | 1.96 | 93 | 1006.3 |
| 20260501221704 | 18 | 337 | 9.7 | 20.9 | 0.08 | 1.96 | 1.96 | 93 | 1004.8 |
| 20260501221204 | 18 | 23 | 8.0 | 20.9 | 0.05 | 1.96 | 1.96 | 92 | 1004.7 |
| 20260501220204 | 18 | 16 | 9.7 | 22.5 | 0.05 | 1.93 | 1.93 | 92 | 1004.8 |
| 20260501215704 | 18 | 16 | 8.0 | 22.5 | 0.05 | 1.93 | 1.93 | 93 | 1004.7 |
| 20260501215204 | 18 | 25 | 8.0 | 24.1 | 0.05 | 1.93 | 1.93 | 92 | 1004.9 |
| 20260501214703 | 18 | 342 | 8.0 | 24.1 | 0.03 | 1.91 | 1.91 | 92 | 1005.3 |
| 20260501214203 | 18 | 22 | 8.0 | 20.9 | 0.03 | 1.91 | 1.91 | 92 | 1005.4 |
| 20260501213704 | 18 | 18 | 8.0 | 20.9 | 0.03 | 1.91 | 1.91 | 92 | 1005.4 |
| 20260501212704 | 18 | 340 | 8.0 | 19.3 | 0.00 | 1.91 | 1.91 | 92 | 1005.8 |
| 20260501212204 | 18 | 353 | 8.0 | 19.3 | 0.00 | 1.91 | 1.91 | 92 | 1005.6 |
| 20260501211703 | 18 | 345 | 8.0 | 20.9 | 0.00 | 1.88 | 1.88 | 92 | 1005.7 |
| 20260501211204 | 18 | 1 | 9.7 | 24.1 | 0.00 | 1.88 | 1.88 | 91 | 1005.7 |
| 20260501210704 | 18 | 346 | 11.3 | 24.1 | 0.00 | 1.88 | 1.88 | 91 | 1005.2 |
| 20260501210203 | 18 | 353 | 9.7 | 22.5 | 0.00 | 1.88 | 1.88 | 91 | 1005.4 |
| 20260501204704 | 18 | 347 | 11.3 | 24.1 | 0.00 | 1.88 | 1.88 | 92 | 1005.6 |
| 20260501204204 | 18 | 352 | 12.9 | 27.4 | 0.03 | 1.88 | 1.88 | 92 | 1005.8 |
| 20260501203704 | 18 | 8 | 14.5 | 29.0 | 0.03 | 1.88 | 1.88 | 92 | 1005.8 |
| 20260501203204 | 18 | 324 | 12.9 | 29.0 | 0.03 | 1.88 | 1.88 | 93 | 1005.9 |
| 20260501202704 | 18 | 355 | 14.5 | 27.4 | 0.03 | 1.88 | 1.88 | 93 | 1005.7 |
| 20260501202204 | 18 | 331 | 16.1 | 27.4 | 0.05 | 1.88 | 1.88 | 94 | 1005.3 |
| 20260501201703 | 18 | 346 | 12.9 | 25.7 | 0.08 | 1.88 | 1.88 | 95 | 1005.4 |
| 20260501201204 | 18 | 334 | 16.1 | 25.7 | 0.38 | 1.88 | 1.88 | 96 | 1005.4 |
| 20260501200204 | 18 | 317 | 9.7 | 27.4 | 1.78 | 1.88 | 1.88 | 97 | 1005.4 |
| 20260501195703 | 17 | 317 | 11.3 | 27.4 | 1.78 | 1.88 | 1.88 | 97 | 1005.3 |
| 20260501195203 | 17 | 325 | 12.9 | 24.1 | 1.78 | 1.88 | 1.88 | 97 | 1005.2 |
| 20260501194704 | 17 | 320 | 8.0 | 24.1 | 1.78 | 1.88 | 1.88 | 97 | 1005.9 |
| 20260501194204 | 17 | 327 | 9.7 | 22.5 | 1.75 | 1.88 | 1.88 | 97 | 1005.9 |
| 20260501193704 | 17 | 325 | 9.7 | 22.5 | 1.75 | 1.88 | 1.88 | 97 | 1005.7 |
| 20260501193204 | 17 | 312 | 9.7 | 27.4 | 1.75 | 1.88 | 1.88 | 97 | 1006.0 |
| 20260501192704 | 17 | 328 | 9.7 | 27.4 | 1.75 | 1.88 | 1.88 | 96 | 1006.0 |
| 20260501192204 | 17 | 345 | 12.9 | 33.8 | 1.75 | 1.85 | 1.85 | 96 | 1005.3 |
| 20260501191704 | 17 | 322 | 9.7 | 33.8 | 1.70 | 1.83 | 1.83 | 96 | 1005.7 |
| 20260501191204 | 17 | 9 | 16.1 | 27.4 | 1.40 | 1.50 | 1.50 | 96 | 1004.3 |
| 20260501190704 | 17 | 350 | 11.3 | 22.5 | 0.41 | 0.51 | 0.51 | 95 | 1007.7 |
| 20260501190204 | 18 | 273 | 6.4 | 33.8 | 0.00 | 0.13 | 0.13 | 94 | 1006.9 |
| 20260501185704 | 18 | 328 | 9.7 | 33.8 | 0.00 | 0.10 | 0.10 | 94 | 1003.7 |
| 20260501185204 | 18 | 31 | 14.5 | 27.4 | 0.00 | 0.10 | 0.10 | 94 | 1002.1 |
| 20260501184703 | 18 | 83 | 17.7 | 27.4 | 0.00 | 0.10 | 0.10 | 94 | 1002.1 |
| 20260501184204 | 18 | 56 | 16.1 | 27.4 | 0.03 | 0.10 | 0.10 | 94 | 1002.6 |
| 20260501183704 | 18 | 76 | 12.9 | 20.9 | 0.03 | 0.10 | 0.10 | 95 | 1003.2 |
| 20260501183204 | 18 | 77 | 11.3 | 20.9 | 0.03 | 0.10 | 0.10 | 95 | 1004.0 |
| 20260501182703 | 18 | 70 | 9.7 | 19.3 | 0.03 | 0.10 | 0.10 | 95 | 1004.2 |
| 20260501180704 | 18 | 70 | 4.8 | 16.1 | 0.05 | 0.10 | 0.10 | 95 | 1005.6 |
| 20260501180204 | 18 | 58 | 4.8 | 16.1 | 0.05 | 0.10 | 0.10 | 96 | 1005.9 |
| 20260501175704 | 18 | 79 | 1.6 | 16.1 | 0.08 | 0.10 | 0.10 | 96 | 1005.7 |
| 20260501175204 | 18 | 67 | 8.0 | 20.9 | 0.08 | 0.10 | 0.10 | 96 | 1005.6 |
| 20260501174704 | 18 | 64 | 8.0 | 20.9 | 0.05 | 0.10 | 0.10 | 96 | 1005.2 |
| 20260501174204 | 18 | 74 | 11.3 | 20.9 | 0.05 | 0.10 | 0.10 | 96 | 1005.3 |
| 20260501173204 | 18 | 2 | 4.8 | 19.3 | 0.05 | 0.08 | 0.08 | 95 | 1006.6 |
| 20260501172204 | 18 | 344 | 8.0 | 14.5 | 0.05 | 0.08 | 0.08 | 95 | 1006.1 |
| 20260501171704 | 18 | 30 | 8.0 | 14.5 | 0.05 | 0.08 | 0.08 | 94 | 1005.9 |
| 20260501171204 | 18 | 65 | 8.0 | 22.5 | 0.03 | 0.05 | 0.05 | 94 | 1006.0 |
| 20260501170704 | 18 | 75 | 8.0 | 22.5 | 0.03 | 0.05 | 0.05 | 94 | 1005.9 |
| 20260501170203 | 18 | 80 | 9.7 | 19.3 | 0.03 | 0.05 | 0.05 | 93 | 1006.2 |
| 20260501165704 | 18 | 59 | 8.0 | 20.9 | 0.00 | 0.05 | 0.05 | 93 | 1006.4 |
| 20260501165204 | 18 | 55 | 8.0 | 20.9 | 0.00 | 0.05 | 0.05 | 93 | 1006.4 |
| 20260501164704 | 18 | 45 | 9.7 | 20.9 | 0.00 | 0.05 | 0.05 | 93 | 1006.3 |
| 20260501164204 | 18 | 28 | 8.0 | 16.1 | 0.03 | 0.05 | 0.05 | 92 | 1006.6 |
| 20260501163704 | 18 | 17 | 8.0 | 16.1 | 0.03 | 0.05 | 0.05 | 92 | 1006.6 |
| 20260501163204 | 18 | 354 | 6.4 | 20.9 | 0.03 | 0.05 | 0.05 | 92 | 1006.9 |
| 20260501162204 | 18 | 30 | 8.0 | 20.9 | 0.00 | 0.03 | 0.03 | 92 | 1006.8 |
| 20260501161704 | 18 | 12 | 9.7 | 22.5 | 0.00 | 0.03 | 0.03 | 92 | 1006.9 |
| 20260501161204 | 18 | 11 | 8.0 | 22.5 | 0.00 | 0.03 | 0.03 | 92 | 1007.2 |
| 20260501160704 | 18 | 41 | 8.0 | 20.9 | 0.00 | 0.03 | 0.03 | 92 | 1007.2 |
| 20260501160203 | 18 | 357 | 9.7 | 20.9 | 0.00 | 0.03 | 0.03 | 92 | 1007.2 |
| 20260501155704 | 18 | 351 | 8.0 | 20.9 | 0.00 | 0.03 | 0.03 | 92 | 1007.4 |
| 20260501155204 | 18 | 357 | 9.7 | 24.1 | 0.00 | 0.03 | 0.03 | 93 | 1007.4 |
| 20260501154704 | 18 | 346 | 9.7 | 24.1 | 0.00 | 0.03 | 0.03 | 93 | 1007.5 |
| 20260501153703 | 18 | 336 | 11.3 | 24.1 | 0.00 | 0.03 | 0.03 | 93 | 1007.7 |
| 20260501153204 | 18 | 352 | 11.3 | 25.7 | 0.00 | 0.03 | 0.03 | 93 | 1007.8 |
| 20260501152704 | 18 | 359 | 11.3 | 25.7 | 0.00 | 0.03 | 0.03 | 92 | 1007.9 |
| 20260501152204 | 18 | 344 | 14.5 | 27.4 | 0.00 | 0.03 | 0.03 | 91 | 1008.2 |
| 20260501151704 | 18 | 337 | 11.3 | 27.4 | 0.00 | 0.03 | 0.03 | 91 | 1008.2 |
| 20260501151204 | 18 | 351 | 12.9 | 20.9 | 0.00 | 0.03 | 0.03 | 91 | 1007.9 |
| 20260501150704 | 18 | 339 | 6.4 | 20.9 | 0.00 | 0.03 | 0.03 | 92 | 1007.3 |
| 20260501150204 | 18 | 33 | 8.0 | 20.9 | 0.00 | 0.03 | 0.03 | 92 | 1007.0 |
| 20260501145704 | 18 | 2 | 9.7 | 20.9 | 0.00 | 0.03 | 0.03 | 92 | 1007.0 |
| 20260501143704 | 18 | 63 | 8.0 | 16.1 | 0.00 | 0.03 | 0.03 | 92 | 1006.6 |
| 20260501142704 | 18 | 22 | 11.3 | 22.5 | 0.00 | 0.03 | 0.03 | 92 | 1006.8 |
| 20260501142204 | 18 | 43 | 6.4 | 20.9 | 0.00 | 0.03 | 0.03 | 92 | 1006.8 |